Time;durP1;ratioP1;P1;durP2;ratioP2;P2;SDS_P1;SDS_P2;PMS_P1;PMS_P2;Temp;Humidity;BMP_temperature;BMP_pressure;BME280_temperature;BME280_humidity;BME280_pressure;Samples;Min_cycle;Max_cycle;Signal;HPM_P1;HPM_P2
2021/10/16 00:02:24;;;;;;;;;;;21.20;60.90;;;;;;5054091;28;1319;-70
2021/10/16 00:04:49;;;;;;;;;;;21.20;60.90;;;;;;5035197;28;1942;-70
2021/10/16 00:07:15;;;;;;;;;;;21.20;60.90;;;;;;5054274;28;1297;-70
2021/10/16 00:09:40;;;;;;;;;;;21.20;60.90;;;;;;5054146;28;1264;-70
2021/10/16 00:12:06;;;;;;;;;;;21.20;61.00;;;;;;5053493;28;1244;-69
2021/10/16 00:14:31;;;;;;;;;;;21.20;61.00;;;;;;5052491;28;1184;-70
2021/10/16 00:16:57;;;;;;;;;;;21.20;61.00;;;;;;5053907;28;1380;-69
2021/10/16 00:19:22;;;;;;;;;;;21.20;61.00;;;;;;5053704;28;1256;-70
2021/10/16 00:21:47;;;;;;;;;;;21.20;61.00;;;;;;5053780;28;1264;-70
2021/10/16 00:24:13;;;;;;;;;;;21.20;61.80;;;;;;5052780;28;1906;-69
2021/10/16 00:26:38;;;;;;;;;;;21.20;61.10;;;;;;5035771;28;1312;-70
2021/10/16 00:29:04;;;;;;;;;;;21.10;61.10;;;;;;5035327;28;1352;-69
2021/10/16 00:31:29;;;;;;;;;;;21.10;61.10;;;;;;5035136;28;1288;-69
2021/10/16 00:33:55;;;;;;;;;;;21.10;61.10;;;;;;5053580;28;1244;-70
2021/10/16 00:36:20;;;;;;;;;;;21.10;61.10;;;;;;5052734;28;1241;-70
2021/10/16 00:38:45;;;;;;;;;;;21.10;61.10;;;;;;5053387;28;1311;-70
2021/10/16 00:41:12;;;;;;;;;;;21.10;61.20;;;;;;5053005;28;1261;-70
2021/10/16 00:43:38;;;;;;;;;;;21.10;61.20;;;;;;5053069;28;1286;-69
2021/10/16 00:46:03;;;;;;;;;;;21.10;61.20;;;;;;5052577;28;1910;-70
2021/10/16 00:48:29;;;;;;;;;;;21.10;61.20;;;;;;5035528;28;1323;-69
2021/10/16 00:50:54;;;;;;;;;;;21.10;61.20;;;;;;5035423;28;1371;-70
2021/10/16 00:53:20;;;;;;;;;;;21.10;61.30;;;;;;5053117;28;1296;-69
2021/10/16 00:55:45;;;;;;;;;;;21.10;61.30;;;;;;5034235;28;1163;-70
2021/10/16 00:58:11;;;;;;;;;;;21.10;61.30;;;;;;5034973;28;1166;-70
2021/10/16 01:00:36;;;;;;;;;;;21.10;61.30;;;;;;5034603;28;1300;-70
2021/10/16 01:03:02;;;;;;;;;;;21.10;61.30;;;;;;5053297;28;1374;-70
2021/10/16 01:05:27;;;;;;;;;;;21.00;61.20;;;;;;5052750;28;1967;-70
2021/10/16 01:07:53;;;;;;;;;;;21.10;61.30;;;;;;5034719;28;1294;-70
2021/10/16 01:10:18;;;;;;;;;;;21.10;61.30;;;;;;5034801;28;1331;-69
2021/10/16 01:12:44;;;;;;;;;;;21.10;61.30;;;;;;5052372;28;1278;-69
2021/10/16 01:15:11;;;;;;;;;;;21.00;61.30;;;;;;5051998;28;1318;-70
2021/10/16 01:17:36;;;;;;;;;;;21.10;61.30;;;;;;5051746;28;1331;-69
2021/10/16 01:20:21;;;;;;;;;;;21.00;61.30;;;;;;5052806;28;1279;-67
2021/10/16 01:22:49;;;;;;;;;;;21.00;61.30;;;;;;5050795;28;1080;-68
2021/10/16 01:25:15;;;;;;;;;;;21.00;61.40;;;;;;5051681;28;1965;-69
2021/10/16 01:27:41;;;;;;;;;;;21.00;61.40;;;;;;5017848;28;1257;-67
2021/10/16 01:30:07;;;;;;;;;;;21.00;62.20;;;;;;5034826;28;1276;-69
2021/10/16 01:32:33;;;;;;;;;;;21.00;61.40;;;;;;5053024;28;1220;-65
2021/10/16 01:34:58;;;;;;;;;;;21.00;61.40;;;;;;5034811;28;1346;-67
2021/10/16 01:37:24;;;;;;;;;;;21.00;61.40;;;;;;5034505;28;1387;-69
2021/10/16 01:39:49;;;;;;;;;;;21.00;61.40;;;;;;5034751;28;1340;-66
2021/10/16 01:42:15;;;;;;;;;;;21.00;61.50;;;;;;5034077;28;1165;-68
2021/10/16 01:44:40;;;;;;;;;;;21.00;61.50;;;;;;5051776;28;1898;-68
2021/10/16 01:47:06;;;;;;;;;;;21.00;61.50;;;;;;5052253;28;1169;-68
2021/10/16 01:49:31;;;;;;;;;;;21.00;61.50;;;;;;5052429;28;1268;-69
2021/10/16 01:51:57;;;;;;;;;;;21.00;61.50;;;;;;5051913;28;1398;-69
2021/10/16 01:54:22;;;;;;;;;;;21.00;61.50;;;;;;5051352;28;1220;-68
2021/10/16 01:56:48;;;;;;;;;;;21.00;61.50;;;;;;5051729;28;1375;-68
2021/10/16 01:59:14;;;;;;;;;;;21.00;61.50;;;;;;5051943;28;1177;-69
2021/10/16 02:01:40;;;;;;;;;;;21.00;61.50;;;;;;5034358;28;1370;-68
2021/10/16 02:04:05;;;;;;;;;;;21.00;61.60;;;;;;5052127;28;1499;-68
2021/10/16 02:06:30;;;;;;;;;;;21.00;61.60;;;;;;5033768;28;1961;-69
2021/10/16 02:08:56;;;;;;;;;;;21.00;61.60;;;;;;5052514;28;1217;-69
2021/10/16 02:11:21;;;;;;;;;;;20.90;61.50;;;;;;5033467;28;1793;-69
2021/10/16 02:13:47;;;;;;;;;;;21.00;61.60;;;;;;5051945;28;1236;-68
2021/10/16 02:16:12;;;;;;;;;;;21.00;61.60;;;;;;5033524;28;1444;-68
2021/10/16 02:18:38;;;;;;;;;;;21.00;61.60;;;;;;5033842;28;1524;-68
2021/10/16 02:21:03;;;;;;;;;;;20.90;61.60;;;;;;5034134;28;1374;-68
2021/10/16 02:23:29;;;;;;;;;;;20.90;61.60;;;;;;5052276;28;1196;-66
2021/10/16 02:25:54;;;;;;;;;;;21.00;61.70;;;;;;5033250;28;1981;-68
2021/10/16 02:28:19;;;;;;;;;;;20.90;61.60;;;;;;5052321;28;1398;-66
2021/10/16 02:30:45;;;;;;;;;;;20.90;61.60;;;;;;5033695;28;1320;-70
2021/10/16 02:33:10;;;;;;;;;;;20.90;61.60;;;;;;5051895;28;1513;-70
2021/10/16 02:35:36;;;;;;;;;;;20.90;61.70;;;;;;5051446;28;1349;-69
2021/10/16 02:38:01;;;;;;;;;;;20.90;61.70;;;;;;5054233;28;1271;-70
2021/10/16 02:40:27;;;;;;;;;;;20.90;61.70;;;;;;5055008;28;1404;-69
2021/10/16 02:42:52;;;;;;;;;;;20.90;61.70;;;;;;5036376;28;1582;-69
2021/10/16 02:45:18;;;;;;;;;;;20.90;61.70;;;;;;5053968;28;1969;-70
2021/10/16 02:47:45;;;;;;;;;;;20.90;61.70;;;;;;5037488;28;1383;-70
2021/10/16 02:50:11;;;;;;;;;;;20.90;61.70;;;;;;5054308;28;1362;-69
2021/10/16 02:52:36;;;;;;;;;;;20.90;61.70;;;;;;5037040;28;1196;-70
2021/10/16 02:55:02;;;;;;;;;;;20.90;61.70;;;;;;5053862;28;1184;-69
2021/10/16 02:57:27;;;;;;;;;;;20.90;61.80;;;;;;5056024;28;1636;-70
2021/10/16 02:59:52;;;;;;;;;;;20.90;61.80;;;;;;5055679;28;1583;-70
2021/10/16 03:02:18;;;;;;;;;;;20.90;61.80;;;;;;5055485;28;1376;-69
2021/10/16 03:04:43;;;;;;;;;;;20.90;61.80;;;;;;5054711;28;1963;-69
2021/10/16 03:07:09;;;;;;;;;;;20.90;61.80;;;;;;5055815;28;1036;-69
2021/10/16 03:09:34;;;;;;;;;;;20.90;61.80;;;;;;5055688;28;1829;-69
2021/10/16 03:12:00;;;;;;;;;;;20.90;61.80;;;;;;5055052;28;1327;-69
2021/10/16 03:14:25;;;;;;;;;;;20.90;61.80;;;;;;5054701;28;1492;-70
2021/10/16 03:16:51;;;;;;;;;;;20.90;61.90;;;;;;5037407;28;1119;-70
2021/10/16 03:19:16;;;;;;;;;;;20.90;61.80;;;;;;5054126;28;1137;-71
2021/10/16 03:21:41;;;;;;;;;;;20.90;61.90;;;;;;5053716;28;1276;-70
2021/10/16 03:24:07;;;;;;;;;;;20.90;61.90;;;;;;5053513;28;1240;-70
2021/10/16 03:26:32;;;;;;;;;;;20.90;61.90;;;;;;5053788;28;1973;-69
2021/10/16 03:28:58;;;;;;;;;;;20.90;62.00;;;;;;5053744;28;1185;-69
2021/10/16 03:31:23;;;;;;;;;;;20.90;62.00;;;;;;5053854;28;1425;-69
2021/10/16 03:33:48;;;;;;;;;;;20.90;62.00;;;;;;5053453;28;1385;-70
2021/10/16 03:36:14;;;;;;;;;;;20.90;62.00;;;;;;5053152;28;1231;-69
2021/10/16 03:38:39;;;;;;;;;;;20.90;61.90;;;;;;5053666;28;1212;-69
2021/10/16 03:41:05;;;;;;;;;;;20.90;61.90;;;;;;5053634;28;1393;-69
2021/10/16 03:43:30;;;;;;;;;;;20.90;61.90;;;;;;5053338;28;1240;-69
2021/10/16 03:45:56;;;;;;;;;;;20.90;61.80;;;;;;5054155;28;1906;-70
2021/10/16 03:48:21;;;;;;;;;;;20.90;61.80;;;;;;5054562;28;1157;-70
2021/10/16 03:50:46;;;;;;;;;;;20.90;61.70;;;;;;5054690;28;1381;-69
2021/10/16 03:53:12;;;;;;;;;;;21.00;61.70;;;;;;5054799;28;1598;-69
2021/10/16 03:55:37;;;;;;;;;;;21.00;61.60;;;;;;5053929;28;1357;-70
2021/10/16 03:58:03;;;;;;;;;;;21.00;61.50;;;;;;5054615;28;1559;-70
2021/10/16 04:00:29;;;;;;;;;;;21.00;61.40;;;;;;5054692;28;1283;-70
2021/10/16 04:02:57;;;;;;;;;;;21.10;61.30;;;;;;5054719;28;1394;-69
2021/10/16 04:05:23;;;;;;;;;;;21.10;61.30;;;;;;5036348;28;1902;-70
2021/10/16 04:07:48;;;;;;;;;;;21.10;61.20;;;;;;5051857;28;1375;-70
2021/10/16 04:10:13;;;;;;;;;;;21.10;61.10;;;;;;5054068;28;1289;-71
2021/10/16 04:12:39;;;;;;;;;;;21.10;61.10;;;;;;5054256;28;1353;-69
2021/10/16 04:15:05;;;;;;;;;;;21.20;61.00;;;;;;5054099;28;1209;-69
2021/10/16 04:17:30;;;;;;;;;;;21.20;61.70;;;;;;5036243;28;1232;-70
2021/10/16 04:19:56;;;;;;;;;;;21.20;60.90;;;;;;5036017;28;1406;-69
2021/10/16 04:22:21;;;;;;;;;;;21.20;60.90;;;;;;5053792;28;1344;-69
2021/10/16 04:24:47;;;;;;;;;;;21.20;60.80;;;;;;5035532;28;1910;-70
2021/10/16 04:27:12;;;;;;;;;;;21.20;60.70;;;;;;5053927;28;1193;-69
2021/10/16 04:29:38;;;;;;;;;;;21.20;60.70;;;;;;5053933;28;1258;-70
2021/10/16 04:32:03;;;;;;;;;;;21.20;60.70;;;;;;5053555;28;1299;-70
2021/10/16 04:34:29;;;;;;;;;;;21.20;60.70;;;;;;5035622;28;1659;-70
2021/10/16 04:36:54;;;;;;;;;;;21.20;60.60;;;;;;5054147;28;1634;-70
2021/10/16 04:39:20;;;;;;;;;;;21.20;60.60;;;;;;5053929;28;1355;-70
2021/10/16 04:41:45;;;;;;;;;;;21.30;60.60;;;;;;5036511;28;1195;-71
2021/10/16 04:44:10;;;;;;;;;;;21.20;60.50;;;;;;5054227;28;1289;-71
2021/10/16 04:46:36;;;;;;;;;;;21.20;60.50;;;;;;5054542;28;1902;-71
2021/10/16 04:49:04;;;;;;;;;;;21.20;61.20;;;;;;5036639;28;1335;-71
2021/10/16 04:51:30;;;;;;;;;;;21.30;60.50;;;;;;5054456;28;1302;-71
2021/10/16 04:53:55;;;;;;;;;;;21.30;60.60;;;;;;5054083;28;1316;-71
2021/10/16 04:56:21;;;;;;;;;;;21.30;60.50;;;;;;5035829;28;1253;-71
2021/10/16 04:58:46;;;;;;;;;;;21.20;60.40;;;;;;5054256;28;1350;-71
2021/10/16 05:01:11;;;;;;;;;;;21.30;60.50;;;;;;5053951;28;1708;-71
2021/10/16 05:03:37;;;;;;;;;;;21.30;60.50;;;;;;5053588;28;1254;-71
2021/10/16 05:06:02;;;;;;;;;;;21.30;60.50;;;;;;5053522;28;1902;-71
2021/10/16 05:08:28;;;;;;;;;;;21.30;60.50;;;;;;5053107;28;1158;-71
2021/10/16 05:10:53;;;;;;;;;;;21.30;60.50;;;;;;5053102;28;1312;-70
2021/10/16 05:13:18;;;;;;;;;;;21.30;60.40;;;;;;5053158;28;1477;-71
2021/10/16 05:15:44;;;;;;;;;;;21.30;60.40;;;;;;5053278;28;1119;-71
2021/10/16 05:18:09;;;;;;;;;;;21.30;60.40;;;;;;5055280;28;1299;-70
2021/10/16 05:20:35;;;;;;;;;;;21.30;60.40;;;;;;5056309;28;1355;-71
2021/10/16 05:23:00;;;;;;;;;;;21.30;60.40;;;;;;5055572;28;1483;-71
2021/10/16 05:25:26;;;;;;;;;;;21.30;60.40;;;;;;5054468;28;1910;-70
2021/10/16 05:27:51;;;;;;;;;;;21.30;60.40;;;;;;5053647;28;1084;-70
2021/10/16 05:30:17;;;;;;;;;;;21.30;60.40;;;;;;5035041;28;1287;-70
2021/10/16 05:32:43;;;;;;;;;;;21.30;60.40;;;;;;5053058;28;1147;-70
2021/10/16 05:35:08;;;;;;;;;;;21.30;60.40;;;;;;5051314;28;1065;-70
2021/10/16 05:37:34;;;;;;;;;;;21.30;60.40;;;;;;5035354;28;1041;-70
2021/10/16 05:39:59;;;;;;;;;;;21.30;60.30;;;;;;5052627;28;1259;-70
2021/10/16 05:42:25;;;;;;;;;;;21.30;60.30;;;;;;5053026;28;1406;-70
2021/10/16 05:44:50;;;;;;;;;;;21.30;60.30;;;;;;5052376;28;1959;-70
2021/10/16 05:47:16;;;;;;;;;;;21.30;60.30;;;;;;5052267;28;1347;-70
2021/10/16 05:49:42;;;;;;;;;;;21.30;60.30;;;;;;5053177;28;1373;-70
2021/10/16 05:52:07;;;;;;;;;;;21.30;60.30;;;;;;5052898;28;1355;-70
2021/10/16 05:54:32;;;;;;;;;;;21.30;60.30;;;;;;5052171;28;1288;-70
2021/10/16 05:56:58;;;;;;;;;;;21.30;60.30;;;;;;5051981;28;1476;-71
2021/10/16 05:59:23;;;;;;;;;;;21.30;60.30;;;;;;5052529;28;1343;-71
2021/10/16 06:01:49;;;;;;;;;;;21.30;60.30;;;;;;5052257;28;1322;-71
2021/10/16 06:04:14;;;;;;;;;;;21.30;60.20;;;;;;5051675;28;1076;-70
2021/10/16 06:06:40;;;;;;;;;;;21.30;59.10;;;;;;5051705;28;2318;-71
2021/10/16 06:09:06;;;;;;;;;;;21.30;57.90;;;;;;5052438;28;1313;-71
2021/10/16 06:11:31;;;;;;;;;;;21.30;57.70;;;;;;5051612;28;1334;-71
2021/10/16 06:13:56;;;;;;;;;;;21.30;56.50;;;;;;5052392;28;1164;-71
2021/10/16 06:16:22;;;;;;;;;;;21.30;55.80;;;;;;5051469;28;1319;-70
2021/10/16 06:18:48;;;;;;;;;;;21.30;55.40;;;;;;5038351;28;1788;-68
2021/10/16 06:21:13;;;;;;;;;;;21.30;56.30;;;;;;5034058;28;1292;-69
2021/10/16 06:23:39;;;;;;;;;;;21.30;55.80;;;;;;5062541;28;1185;-71
2021/10/16 06:26:04;;;;;;;;;;;21.40;56.10;;;;;;5033209;28;1910;-70
2021/10/16 06:28:30;;;;;;;;;;;21.40;56.10;;;;;;5051132;28;1036;-70
2021/10/16 06:30:55;;;;;;;;;;;21.50;56.20;;;;;;5051325;28;1328;-70
2021/10/16 06:33:21;;;;;;;;;;;21.50;56.30;;;;;;5033028;28;1092;-70
2021/10/16 06:35:47;;;;;;;;;;;21.60;56.40;;;;;;5049826;28;1309;-67
2021/10/16 06:38:12;;;;;;;;;;;21.70;56.50;;;;;;5052578;28;1196;-71
2021/10/16 06:40:38;;;;;;;;;;;21.80;56.40;;;;;;5052236;28;1323;-71
2021/10/16 06:43:03;;;;;;;;;;;21.90;56.40;;;;;;5052783;28;1244;-68
2021/10/16 06:45:29;;;;;;;;;;;21.90;56.30;;;;;;5051383;28;1914;-69
2021/10/16 06:47:54;;;;;;;;;;;22.00;56.30;;;;;;5052853;28;1394;-70
2021/10/16 06:50:19;;;;;;;;;;;22.10;56.30;;;;;;5034268;28;1355;-70
2021/10/16 06:52:45;;;;;;;;;;;22.10;56.20;;;;;;5034289;28;1349;-71
2021/10/16 06:55:10;;;;;;;;;;;22.10;56.20;;;;;;5050932;28;1333;-71
2021/10/16 06:57:36;;;;;;;;;;;22.20;56.20;;;;;;5034291;28;1592;-69
2021/10/16 07:00:02;;;;;;;;;;;22.20;56.80;;;;;;5054159;28;1388;-69
2021/10/16 07:02:27;;;;;;;;;;;22.20;56.20;;;;;;5054114;28;1353;-70
2021/10/16 07:04:53;;;;;;;;;;;22.20;56.20;;;;;;5051322;28;1899;-70
2021/10/16 07:07:19;;;;;;;;;;;22.20;56.20;;;;;;5051380;28;947;-70
2021/10/16 07:09:44;;;;;;;;;;;22.20;56.20;;;;;;5050537;28;1381;-70
2021/10/16 07:12:10;;;;;;;;;;;22.30;56.30;;;;;;5051014;28;1356;-70
2021/10/16 07:14:35;;;;;;;;;;;22.30;56.20;;;;;;5032045;28;1216;-70
2021/10/16 07:17:01;;;;;;;;;;;22.30;56.20;;;;;;5032684;28;1477;-70
2021/10/16 07:19:26;;;;;;;;;;;22.30;56.20;;;;;;5033044;28;1294;-70
2021/10/16 07:21:52;;;;;;;;;;;22.30;56.30;;;;;;5033689;28;1312;-70
2021/10/16 07:24:17;;;;;;;;;;;22.30;56.40;;;;;;5051926;28;1033;-70
2021/10/16 07:26:43;;;;;;;;;;;22.30;56.40;;;;;;5037047;28;1955;-70
2021/10/16 07:29:09;;;;;;;;;;;22.30;56.40;;;;;;5037755;28;1469;-69
2021/10/16 07:31:34;;;;;;;;;;;22.30;56.50;;;;;;5055899;28;1366;-70
2021/10/16 07:34:00;;;;;;;;;;;22.20;56.50;;;;;;5054186;28;1319;-69
2021/10/16 07:36:34;;;;;;;;;;;22.20;56.50;;;;;;5054781;28;1009;-69
2021/10/16 07:38:59;;;;;;;;;;;22.20;56.60;;;;;;5057818;28;1248;-69
2021/10/16 07:41:24;;;;;;;;;;;22.20;56.60;;;;;;5054835;28;1358;-70
2021/10/16 07:43:50;;;;;;;;;;;22.20;56.70;;;;;;5054968;28;1255;-69
2021/10/16 07:46:15;;;;;;;;;;;22.20;56.70;;;;;;5055973;28;1950;-69
2021/10/16 07:48:41;;;;;;;;;;;22.20;56.80;;;;;;5039041;28;1253;-69
2021/10/16 07:51:06;;;;;;;;;;;22.20;56.80;;;;;;5057289;28;1303;-69
2021/10/16 07:53:32;;;;;;;;;;;22.20;56.90;;;;;;5057372;28;1355;-69
2021/10/16 07:55:57;;;;;;;;;;;22.20;56.90;;;;;;5057109;28;1245;-69
2021/10/16 07:58:22;;;;;;;;;;;22.10;56.90;;;;;;5039902;28;1116;-68
2021/10/16 08:00:48;;;;;;;;;;;22.20;57.00;;;;;;5058782;28;1342;-68
2021/10/16 08:03:13;;;;;;;;;;;22.20;57.10;;;;;;5041661;28;1326;-68
2021/10/16 08:05:39;;;;;;;;;;;22.10;57.00;;;;;;5057950;28;1952;-68
2021/10/16 08:08:04;;;;;;;;;;;22.20;57.10;;;;;;5058718;28;1347;-68
2021/10/16 08:10:30;;;;;;;;;;;22.10;57.10;;;;;;5059450;28;1382;-68
2021/10/16 08:12:55;;;;;;;;;;;22.10;57.20;;;;;;5058904;28;1127;-68
2021/10/16 08:15:21;;;;;;;;;;;22.10;57.30;;;;;;5040081;28;1273;-68
2021/10/16 08:17:46;;;;;;;;;;;22.10;57.30;;;;;;5058846;28;1308;-68
2021/10/16 08:20:11;;;;;;;;;;;22.10;57.30;;;;;;5040494;28;1359;-68
2021/10/16 08:22:42;;;;;;;;;;;22.10;57.40;;;;;;5058104;28;1484;-68
2021/10/16 08:25:08;;;;;;;;;;;22.10;57.40;;;;;;5053063;28;1954;-68
2021/10/16 08:27:33;;;;;;;;;;;22.10;57.40;;;;;;5048218;28;1621;-68
2021/10/16 08:29:59;;;;;;;;;;;22.10;57.40;;;;;;5042057;28;1429;-69
2021/10/16 08:32:24;;;;;;;;;;;22.00;57.40;;;;;;5053278;28;1281;-69
2021/10/16 08:34:49;;;;;;;;;;;22.00;57.40;;;;;;5052008;28;1108;-68
2021/10/16 08:37:15;;;;;;;;;;;22.10;57.50;;;;;;5053045;28;1259;-69
2021/10/16 08:39:40;;;;;;;;;;;22.10;57.60;;;;;;5052708;28;1381;-68
2021/10/16 08:42:06;;;;;;;;;;;22.10;57.60;;;;;;5052316;28;1198;-69
2021/10/16 08:44:31;;;;;;;;;;;22.00;57.60;;;;;;5032807;28;1910;-69
2021/10/16 08:46:57;;;;;;;;;;;22.00;57.60;;;;;;5052513;28;1289;-69
2021/10/16 08:49:23;;;;;;;;;;;22.00;57.60;;;;;;5034756;28;1069;-69
2021/10/16 08:51:48;;;;;;;;;;;22.00;57.60;;;;;;5017696;28;1259;-70
2021/10/16 08:54:13;;;;;;;;;;;22.00;57.70;;;;;;5052670;28;1263;-69
2021/10/16 08:56:39;;;;;;;;;;;22.10;57.70;;;;;;5053063;28;1310;-69
2021/10/16 08:59:04;;;;;;;;;;;22.10;57.70;;;;;;5052434;28;1320;-69
2021/10/16 09:01:30;;;;;;;;;;;22.10;57.70;;;;;;5050035;28;1745;-70
2021/10/16 09:03:57;;;;;;;;;;;22.10;57.60;;;;;;5050589;28;1159;-69
2021/10/16 09:06:30;;;;;;;;;;;22.20;57.60;;;;;;5051602;28;1969;-69
2021/10/16 09:09:13;;;;;;;;;;;22.20;57.60;;;;;;5033454;28;1268;-69
2021/10/16 09:11:39;;;;;;;;;;;22.20;57.50;;;;;;5051991;28;1355;-69
2021/10/16 09:14:08;;;;;;;;;;;22.20;57.40;;;;;;5051266;28;1247;-69
2021/10/16 09:16:38;;;;;;;;;;;22.30;57.40;;;;;;5051125;28;1415;-68
2021/10/16 09:19:10;;;;;;;;;;;22.30;57.40;;;;;;5016229;28;1273;-69
2021/10/16 09:21:37;;;;;;;;;;;22.30;57.30;;;;;;5051955;28;1370;-66
2021/10/16 09:24:02;;;;;;;;;;;22.30;57.30;;;;;;5034177;28;1116;-69
2021/10/16 09:26:27;;;;;;;;;;;22.30;57.20;;;;;;5051506;28;1938;-69
2021/10/16 09:28:57;;;;;;;;;;;22.40;57.20;;;;;;5050771;28;1296;-69
2021/10/16 09:31:22;;;;;;;;;;;22.30;57.20;;;;;;5033791;28;1254;-69
2021/10/16 09:33:47;;;;;;;;;;;22.30;57.20;;;;;;5033568;28;1438;-68
2021/10/16 09:36:22;;;;;;;;;;;22.40;57.30;;;;;;5050884;28;1258;-68
2021/10/16 09:38:48;;;;;;;;;;;22.40;57.30;;;;;;5033732;28;1352;-69
2021/10/16 09:41:20;;;;;;;;;;;22.30;57.30;;;;;;5051299;28;1280;-68
2021/10/16 09:43:46;;;;;;;;;;;22.30;57.30;;;;;;5030478;28;1120;-69
2021/10/16 09:46:12;;;;;;;;;;;22.30;57.30;;;;;;5050713;28;1968;-68
2021/10/16 09:48:37;;;;;;;;;;;22.30;57.30;;;;;;5033762;28;1355;-68
2021/10/16 09:51:02;;;;;;;;;;;22.30;57.30;;;;;;5034048;28;1305;-69
2021/10/16 09:53:28;;;;;;;;;;;22.30;57.40;;;;;;5033652;28;1077;-69
2021/10/16 09:55:54;;;;;;;;;;;22.30;57.40;;;;;;5034002;28;1311;-68
2021/10/16 09:58:20;;;;;;;;;;;22.30;57.40;;;;;;5052700;28;1248;-68
2021/10/16 10:00:46;;;;;;;;;;;22.30;57.40;;;;;;5067729;28;1335;-68
2021/10/16 10:03:11;;;;;;;;;;;22.30;57.40;;;;;;5052431;28;1255;-69
2021/10/16 10:05:37;;;;;;;;;;;22.30;57.50;;;;;;5030937;28;1957;-69
2021/10/16 10:08:02;;;;;;;;;;;22.30;57.50;;;;;;5034132;28;1159;-70
2021/10/16 10:10:28;;;;;;;;;;;22.30;57.50;;;;;;5052022;28;1317;-70
2021/10/16 10:12:54;;;;;;;;;;;22.30;57.60;;;;;;5033895;28;1308;-69
2021/10/16 10:15:19;;;;;;;;;;;22.30;57.60;;;;;;5033330;28;1353;-69
2021/10/16 10:17:46;;;;;;;;;;;22.30;57.60;;;;;;5034403;28;1392;-69
2021/10/16 10:20:14;;;;;;;;;;;22.30;57.60;;;;;;5034105;28;1732;-69
2021/10/16 10:22:40;;;;;;;;;;;22.30;57.60;;;;;;5033733;28;1536;-69
2021/10/16 10:25:23;;;;;;;;;;;22.30;57.60;;;;;;5050722;28;1918;-69
2021/10/16 10:27:48;;;;;;;;;;;22.30;57.60;;;;;;5034834;28;1375;-69
2021/10/16 10:30:32;;;;;;;;;;;22.30;57.60;;;;;;5051565;28;1280;-69
2021/10/16 10:33:15;;;;;;;;;;;22.40;57.60;;;;;;5052522;28;1075;-69
2021/10/16 10:36:07;;;;;;;;;;;22.30;57.60;;;;;;5051666;28;1349;-70
2021/10/16 10:38:34;;;;;;;;;;;22.30;57.50;;;;;;5011744;28;1397;-69
2021/10/16 10:41:17;;;;;;;;;;;22.40;57.60;;;;;;5055020;22;2192;-69
2021/10/16 10:43:43;;;;;;;;;;;22.40;57.60;;;;;;5060426;28;1365;-69
2021/10/16 10:46:11;;;;;;;;;;;22.40;57.60;;;;;;5072115;28;1968;-69
2021/10/16 10:48:43;;;;;;;;;;;22.40;57.60;;;;;;5072530;28;1105;-69
2021/10/16 10:51:09;;;;;;;;;;;22.40;57.60;;;;;;5054499;28;1242;-69
2021/10/16 10:53:35;;;;;;;;;;;22.40;57.60;;;;;;5054609;28;1331;-69
2021/10/16 10:56:06;;;;;;;;;;;22.40;57.60;;;;;;5054312;28;1374;-69
2021/10/16 10:59:00;;;;;;;;;;;22.40;57.60;;;;;;5055234;28;1699;-69
2021/10/16 11:01:44;;;;;;;;;;;22.40;57.60;;;;;;5066498;28;1420;-69
2021/10/16 11:04:09;;;;;;;;;;;22.40;57.70;;;;;;5087782;28;1221;-69
2021/10/16 11:06:35;;;;;;;;;;;22.40;57.70;;;;;;5059929;28;1964;-70
2021/10/16 11:09:16;;;;;;;;;;;22.30;57.60;;;;;;5047030;28;1603;-69
2021/10/16 11:11:45;;;;;;;;;;;22.40;57.70;;;;;;5058961;28;1623;-67
2021/10/16 11:14:10;;;;;;;;;;;22.30;57.70;;;;;;5073865;28;1274;-70
2021/10/16 11:16:36;;;;;;;;;;;22.40;57.80;;;;;;5072912;28;1478;-69
2021/10/16 11:19:01;;;;;;;;;;;22.30;57.70;;;;;;5057371;28;1336;-69
2021/10/16 11:21:27;;;;;;;;;;;22.30;57.70;;;;;;5088723;28;1210;-70
2021/10/16 11:23:52;;;;;;;;;;;22.30;57.80;;;;;;5075391;28;1164;-70
2021/10/16 11:26:18;;;;;;;;;;;22.30;57.80;;;;;;5037009;28;1973;-69
2021/10/16 11:28:43;;;;;;;;;;;22.30;57.80;;;;;;5081082;28;1064;-70
2021/10/16 11:31:08;;;;;;;;;;;22.30;57.80;;;;;;5057057;28;1967;-70
2021/10/16 11:33:38;;;;;;;;;;;22.30;57.80;;;;;;5080937;28;1165;-69
2021/10/16 11:36:04;;;;;;;;;;;22.30;57.80;;;;;;5056567;28;1100;-71
2021/10/16 11:38:30;;;;;;;;;;;22.30;57.80;;;;;;5052904;28;1119;-71
2021/10/16 11:40:55;;;;;;;;;;;22.30;57.90;;;;;;5074624;28;1554;-70
2021/10/16 11:43:25;;;;;;;;;;;22.30;57.90;;;;;;5057914;28;1006;-70
2021/10/16 11:45:51;;;;;;;;;;;22.30;57.90;;;;;;5068338;28;1918;-71
2021/10/16 11:48:20;;;;;;;;;;;22.30;57.90;;;;;;5081916;28;1511;-71
2021/10/16 11:50:49;;;;;;;;;;;22.30;58.00;;;;;;5057141;28;1296;-71
2021/10/16 11:53:21;;;;;;;;;;;22.30;58.00;;;;;;5057461;28;1512;-68
2021/10/16 11:55:47;;;;;;;;;;;22.30;58.00;;;;;;5075182;28;998;-71
2021/10/16 11:58:13;;;;;;;;;;;22.30;58.00;;;;;;5057148;28;1245;-67
2021/10/16 12:00:39;;;;;;;;;;;22.30;58.00;;;;;;5056764;28;1585;-67
2021/10/16 12:03:13;;;;;;;;;;;22.30;58.00;;;;;;5074280;28;1385;-67
2021/10/16 12:05:39;;;;;;;;;;;22.30;58.00;;;;;;5073279;28;1960;-68
2021/10/16 12:08:11;;;;;;;;;;;22.30;58.00;;;;;;5074682;28;1550;-68
2021/10/16 12:10:37;;;;;;;;;;;22.30;58.00;;;;;;5054601;28;1459;-68
2021/10/16 12:13:03;;;;;;;;;;;22.30;58.00;;;;;;5073614;28;1639;-69
2021/10/16 12:15:33;;;;;;;;;;;22.30;58.00;;;;;;5074061;28;1707;-68
2021/10/16 12:17:58;;;;;;;;;;;22.30;58.10;;;;;;5074383;28;1525;-68
2021/10/16 12:20:24;;;;;;;;;;;22.30;58.00;;;;;;5058275;28;1583;-68
2021/10/16 12:22:59;;;;;;;;;;;22.30;58.00;;;;;;5074464;28;1787;-68
2021/10/16 12:25:24;;;;;;;;;;;22.30;58.10;;;;;;5056128;28;2243;-68
2021/10/16 12:28:02;;;;;;;;;;;22.30;58.10;;;;;;5074341;28;1711;-68
2021/10/16 12:30:27;;;;;;;;;;;22.30;58.10;;;;;;5075672;28;1377;-72
2021/10/16 12:33:02;;;;;;;;;;;22.30;58.10;;;;;;5087199;28;1655;-70
2021/10/16 12:35:28;;;;;;;;;;;22.30;58.10;;;;;;5086674;28;1486;-71
2021/10/16 12:37:57;;;;;;;;;;;22.20;58.10;;;;;;5074633;28;1659;-71
2021/10/16 12:40:32;;;;;;;;;;;22.20;58.10;;;;;;5074175;28;1560;-71
2021/10/16 12:42:58;;;;;;;;;;;22.30;58.20;;;;;;5074627;28;1382;-71
2021/10/16 12:45:24;;;;;;;;;;;22.20;58.20;;;;;;5073984;28;1914;-71
2021/10/16 12:47:49;;;;;;;;;;;22.30;58.20;;;;;;5056482;28;1616;-71
2021/10/16 12:50:14;;;;;;;;;;;22.30;58.30;;;;;;5074149;28;1693;-71
2021/10/16 12:52:43;;;;;;;;;;;22.20;58.20;;;;;;5074459;28;1069;-71
2021/10/16 12:55:11;;;;;;;;;;;22.20;58.20;;;;;;5073625;28;1693;-71
2021/10/16 12:57:36;;;;;;;;;;;22.20;58.30;;;;;;5085052;28;1349;-71
2021/10/16 13:00:02;;;;;;;;;;;22.20;58.30;;;;;;5058990;28;1311;-71
2021/10/16 13:02:28;;;;;;;;;;;22.20;58.40;;;;;;5074209;28;1189;-72
2021/10/16 13:04:53;;;;;;;;;;;22.20;58.50;;;;;;5073396;28;1890;-72
2021/10/16 13:07:19;;;;;;;;;;;22.20;58.50;;;;;;5084635;28;1173;-72
2021/10/16 13:09:44;;;;;;;;;;;22.20;58.50;;;;;;5058552;28;1509;-71
2021/10/16 13:12:10;;;;;;;;;;;22.20;58.50;;;;;;5052957;28;1162;-71
2021/10/16 13:14:35;;;;;;;;;;;22.20;58.60;;;;;;5076747;28;1521;-72
2021/10/16 13:17:01;;;;;;;;;;;22.10;58.60;;;;;;5062115;28;1195;-72
2021/10/16 13:19:26;;;;;;;;;;;22.20;58.60;;;;;;5055683;28;1420;-71
2021/10/16 13:21:52;;;;;;;;;;;22.10;58.60;;;;;;5062415;28;1386;-70
2021/10/16 13:24:17;;;;;;;;;;;22.10;58.60;;;;;;5070541;28;1363;-70
2021/10/16 13:26:42;;;;;;;;;;;22.10;58.60;;;;;;5054295;28;1894;-70
2021/10/16 13:29:08;;;;;;;;;;;22.10;58.60;;;;;;5038644;28;1267;-71
2021/10/16 13:31:33;;;;;;;;;;;22.10;58.70;;;;;;5051422;28;1578;-69
2021/10/16 13:33:59;;;;;;;;;;;22.10;58.70;;;;;;5062556;28;1286;-71
2021/10/16 13:36:25;;;;;;;;;;;22.10;58.80;;;;;;5070879;28;1298;-72
2021/10/16 13:38:50;;;;;;;;;;;22.00;58.70;;;;;;5052482;28;1522;-72
2021/10/16 13:41:16;;;;;;;;;;;22.10;58.80;;;;;;5045548;28;1544;-72
2021/10/16 13:43:42;;;;;;;;;;;22.00;58.80;;;;;;5044167;28;1683;-71
2021/10/16 13:46:07;;;;;;;;;;;22.00;58.80;;;;;;5060450;28;1969;-71
2021/10/16 13:48:33;;;;;;;;;;;22.00;58.90;;;;;;5068168;28;1223;-71
2021/10/16 13:50:58;;;;;;;;;;;22.00;58.90;;;;;;5073685;28;1396;-70
2021/10/16 13:53:24;;;;;;;;;;;21.90;58.90;;;;;;5061484;28;1337;-71
2021/10/16 13:55:49;;;;;;;;;;;22.00;59.00;;;;;;5057434;28;1200;-72
2021/10/16 13:58:15;;;;;;;;;;;22.00;59.10;;;;;;5061465;28;1223;-70
2021/10/16 14:00:40;;;;;;;;;;;21.90;59.00;;;;;;5066441;28;1370;-70
2021/10/16 14:03:06;;;;;;;;;;;21.90;59.10;;;;;;5065584;28;1572;-70
2021/10/16 14:05:31;;;;;;;;;;;21.90;59.10;;;;;;5070011;28;1894;-73
2021/10/16 14:07:56;;;;;;;;;;;21.90;59.10;;;;;;5049923;28;1286;-72
2021/10/16 14:10:22;;;;;;;;;;;21.90;59.20;;;;;;5072638;28;1647;-72
2021/10/16 14:12:47;;;;;;;;;;;21.90;59.20;;;;;;5085174;28;1279;-72
2021/10/16 14:15:13;;;;;;;;;;;21.90;59.30;;;;;;5071386;28;1151;-71
2021/10/16 14:17:38;;;;;;;;;;;21.90;59.30;;;;;;5072076;28;2239;-71
2021/10/16 14:20:04;;;;;;;;;;;21.90;59.30;;;;;;5072706;28;1637;-71
2021/10/16 14:22:29;;;;;;;;;;;21.80;59.30;;;;;;5072484;28;1539;-71
2021/10/16 14:24:55;;;;;;;;;;;21.80;59.30;;;;;;5072333;28;1957;-71
2021/10/16 14:27:21;;;;;;;;;;;21.80;59.30;;;;;;5054860;28;1580;-71